Time;durP1;ratioP1;P1;durP2;ratioP2;P2;SDS_P1;SDS_P2;PMS_P1;PMS_P2;Temp;Humidity;BMP_temperature;BMP_pressure;BME280_temperature;BME280_humidity;BME280_pressure;Samples;Min_cycle;Max_cycle;Signal;HPM_P1;HPM_P2
2021/09/20 00:02:09;;;;;;;4.18;1.50;;;17.10;99.90;;;;;;4973998;28;20030;-85
2021/09/20 00:04:35;;;;;;;4.57;1.38;;;17.10;99.90;;;;;;4974284;28;20058;-80
2021/09/20 00:07:01;;;;;;;4.38;1.58;;;17.10;99.90;;;;;;4973329;28;20055;-79
2021/09/20 00:09:26;;;;;;;5.60;1.48;;;17.20;99.90;;;;;;4973866;28;20031;-79
2021/09/20 00:11:52;;;;;;;11.07;1.65;;;17.20;99.90;;;;;;4974503;28;20048;-78
2021/09/20 00:14:18;;;;;;;2.25;1.23;;;17.20;99.90;;;;;;4973998;28;20065;-79
2021/09/20 00:16:44;;;;;;;4.88;1.70;;;17.20;99.90;;;;;;4974103;28;20390;-81
2021/09/20 00:19:10;;;;;;;6.93;1.60;;;17.30;99.90;;;;;;4974700;28;20034;-84
2021/09/20 00:21:36;;;;;;;4.80;1.88;;;17.40;99.90;;;;;;4977795;28;20026;-85
2021/09/20 00:24:02;;;;;;;10.00;1.80;;;17.50;99.90;;;;;;4977990;28;20375;-83
2021/09/20 00:26:30;;;;;;;2.45;1.52;;;17.60;99.90;;;;;;4977781;28;20030;-79
2021/09/20 00:28:56;;;;;;;3.75;1.08;;;17.70;99.90;;;;;;4977814;28;20110;-81
2021/09/20 00:31:22;;;;;;;4.65;1.00;;;17.80;99.90;;;;;;4977470;28;20134;-82
2021/09/20 00:33:48;;;;;;;1.88;1.05;;;17.90;99.90;;;;;;4977774;28;20062;-84
2021/09/20 00:36:14;;;;;;;1.08;0.80;;;17.90;99.90;;;;;;4977547;28;20038;-84
2021/09/20 00:38:40;;;;;;;1.92;0.95;;;18.00;99.90;;;;;;4977641;28;20031;-80
2021/09/20 00:41:06;;;;;;;2.35;0.85;;;18.00;99.90;;;;;;4977303;28;20027;-83
2021/09/20 00:43:31;;;;;;;2.72;1.15;;;18.00;99.90;;;;;;4977787;28;20062;-81
2021/09/20 00:45:57;;;;;;;1.83;0.90;;;18.00;99.90;;;;;;4977383;28;20031;-79
2021/09/20 00:48:23;;;;;;;8.63;0.93;;;18.00;99.90;;;;;;4977478;28;20046;-82
2021/09/20 00:50:49;;;;;;;2.05;1.35;;;18.00;99.90;;;;;;4977368;28;20019;-82
2021/09/20 00:53:15;;;;;;;1.83;0.90;;;18.00;99.90;;;;;;4977343;28;20397;-83
2021/09/20 00:55:44;;;;;;;2.13;1.30;;;17.90;99.90;;;;;;4977061;28;20049;-80
2021/09/20 00:58:12;;;;;;;2.70;1.27;;;17.90;99.90;;;;;;4977209;28;20050;-79
2021/09/20 01:00:38;;;;;;;1.38;1.20;;;17.90;99.90;;;;;;4977066;28;20030;-79
2021/09/20 01:03:04;;;;;;;3.40;1.20;;;17.90;99.90;;;;;;4977064;28;20078;-79
2021/09/20 01:05:30;;;;;;;5.03;1.10;;;17.90;99.90;;;;;;4976667;28;20071;-83
2021/09/20 01:07:56;;;;;;;3.28;1.50;;;17.80;99.90;;;;;;4976794;28;20101;-85
2021/09/20 01:10:22;;;;;;;3.03;0.90;;;17.90;99.90;;;;;;4977055;28;20050;-84
2021/09/20 01:12:48;;;;;;;2.58;1.27;;;17.90;99.90;;;;;;4977246;28;20058;-83
2021/09/20 01:15:14;;;;;;;6.93;1.08;;;17.90;99.90;;;;;;4976791;28;20062;-80
2021/09/20 01:17:40;;;;;;;12.10;1.23;;;17.90;99.90;;;;;;4977216;28;20090;-80
2021/09/20 01:20:07;;;;;;;1.73;0.85;;;17.90;99.90;;;;;;4976875;28;20030;-84
2021/09/20 01:22:36;;;;;;;5.40;1.15;;;18.00;99.90;;;;;;4976584;28;20035;-81
2021/09/20 01:25:03;;;;;;;1.20;0.90;;;18.00;99.90;;;;;;4976733;28;20027;-80
2021/09/20 01:27:29;;;;;;;5.00;1.13;;;18.00;99.90;;;;;;4976730;28;20031;-79
2021/09/20 01:29:55;;;;;;;1.15;1.02;;;18.00;99.90;;;;;;4976563;28;20066;-81
2021/09/20 01:32:26;;;;;;;3.95;1.20;;;18.00;99.90;;;;;;4976509;28;20027;-85
2021/09/20 01:34:52;;;;;;;2.95;1.15;;;17.90;99.90;;;;;;4976617;28;20058;-84
2021/09/20 01:37:36;;;;;;;2.40;1.00;;;17.90;99.90;;;;;;4976307;28;20030;-79
2021/09/20 01:40:03;;;;;;;1.73;0.93;;;18.00;99.90;;;;;;4976490;28;20030;-84
2021/09/20 01:42:29;;;;;;;4.45;1.17;;;18.00;99.90;;;;;;4975238;28;20062;-82
2021/09/20 01:44:55;;;;;;;2.55;1.48;;;17.90;99.90;;;;;;4975406;28;20030;-79
2021/09/20 01:47:21;;;;;;;2.03;1.02;;;17.80;99.90;;;;;;4975135;28;20038;-81
2021/09/20 01:49:47;;;;;;;4.55;1.00;;;17.80;99.90;;;;;;4975355;28;20031;-81
2021/09/20 01:52:15;;;;;;;2.08;1.27;;;17.80;99.90;;;;;;4975124;28;20049;-84
2021/09/20 01:54:41;;;;;;;5.68;1.20;;;17.80;99.90;;;;;;4975019;28;20405;-79
2021/09/20 01:57:17;;;;;;;3.90;1.73;;;17.90;99.90;;;;;;4975079;28;20030;-78
2021/09/20 01:59:43;;;;;;;2.22;0.98;;;18.00;99.90;;;;;;4975611;28;20041;-79
2021/09/20 02:08:49;;;;;;;4.85;1.42;;;18.10;99.90;;;;;;4974247;28;20506;-79
2021/09/20 02:11:16;;;;;;;1.42;1.27;;;18.10;99.90;;;;;;4974689;28;20042;-79
2021/09/20 02:13:43;;;;;;;6.78;1.30;;;18.10;99.90;;;;;;4974696;28;20077;-79
2021/09/20 02:16:09;;;;;;;4.80;1.45;;;18.10;99.90;;;;;;4974615;28;20031;-82
2021/09/20 02:18:36;;;;;;;1.33;1.23;;;18.10;99.90;;;;;;4974546;28;20106;-79
2021/09/20 02:21:03;;;;;;;2.38;1.23;;;18.20;99.90;;;;;;4974616;28;20035;-80
2021/09/20 02:23:30;;;;;;;2.53;1.33;;;18.20;99.90;;;;;;4974449;28;20551;-84
2021/09/20 02:25:56;;;;;;;1.42;1.33;;;18.20;99.90;;;;;;4974673;28;20035;-81
2021/09/20 02:28:22;;;;;;;2.72;1.27;;;18.20;99.90;;;;;;4974285;28;20035;-79
2021/09/20 02:30:48;;;;;;;3.58;1.23;;;18.20;99.90;;;;;;4974414;28;20113;-84
2021/09/20 02:33:14;;;;;;;1.38;1.10;;;18.20;99.90;;;;;;4974234;28;20471;-85
2021/09/20 02:35:40;;;;;;;5.65;1.50;;;18.20;99.90;;;;;;4974323;28;20363;-78
2021/09/20 02:38:06;;;;;;;2.95;1.30;;;18.20;99.90;;;;;;4974168;28;20034;-79
2021/09/20 02:40:32;;;;;;;4.53;1.30;;;18.20;99.90;;;;;;4974218;28;20035;-81
2021/09/20 02:42:58;;;;;;;1.20;1.10;;;18.20;99.90;;;;;;4973868;28;20484;-78
2021/09/20 02:45:24;;;;;;;1.77;1.45;;;18.20;99.90;;;;;;4974937;28;20390;-84
2021/09/20 02:47:50;;;;;;;2.58;1.25;;;18.20;99.90;;;;;;4974138;28;20093;-82
2021/09/20 02:50:15;;;;;;;1.95;1.50;;;18.20;99.90;;;;;;4956792;28;20388;-79
2021/09/20 02:52:42;;;;;;;2.28;1.35;;;18.20;99.90;;;;;;4973819;28;20517;-80
2021/09/20 02:55:09;;;;;;;2.70;1.55;;;18.20;99.90;;;;;;4974102;28;20489;-82
2021/09/20 02:57:35;;;;;;;2.92;1.50;;;18.20;99.90;;;;;;4973961;28;20125;-80
2021/09/20 03:00:03;;;;;;;4.18;1.75;;;18.10;99.90;;;;;;4973981;28;20397;-81
2021/09/20 03:02:29;;;;;;;8.38;1.80;;;18.10;99.90;;;;;;4973740;28;20034;-82
2021/09/20 03:04:55;;;;;;;6.15;1.70;;;18.20;99.90;;;;;;4973883;28;20031;-79
2021/09/20 03:07:27;;;;;;;3.15;1.88;;;18.20;99.90;;;;;;4973648;28;20138;-85
2021/09/20 03:09:52;;;;;;;2.28;1.80;;;18.20;99.90;;;;;;4973685;28;20039;-79
2021/09/20 03:12:18;;;;;;;4.47;2.15;;;18.20;99.90;;;;;;4973711;28;20054;-84
2021/09/20 03:14:44;;;;;;;9.80;1.92;;;18.20;99.90;;;;;;4973528;28;20061;-82
2021/09/20 03:17:10;;;;;;;3.10;1.60;;;18.20;99.90;;;;;;4973659;28;20113;-79
2021/09/20 03:19:36;;;;;;;9.93;2.05;;;18.20;99.90;;;;;;4973649;28;20039;-84
2021/09/20 03:22:02;;;;;;;3.15;1.83;;;18.20;99.90;;;;;;4973476;28;20113;-79
2021/09/20 03:24:28;;;;;;;7.07;2.17;;;18.20;99.90;;;;;;4973429;28;20125;-79
2021/09/20 03:26:55;;;;;;;3.42;1.85;;;18.20;99.90;;;;;;4973350;28;20035;-78
2021/09/20 03:29:21;;;;;;;3.55;1.80;;;18.20;99.90;;;;;;4973561;28;20038;-83
2021/09/20 03:31:48;;;;;;;9.07;1.60;;;18.30;99.90;;;;;;4973287;28;20166;-83
2021/09/20 03:34:14;;;;;;;5.82;1.48;;;18.40;99.90;;;;;;4973412;28;20054;-81
2021/09/20 03:36:43;;;;;;;3.22;1.60;;;18.30;99.90;;;;;;4973361;28;20121;-83
2021/09/20 03:39:12;;;;;;;4.38;1.58;;;18.40;99.90;;;;;;4973373;28;20045;-81
2021/09/20 03:41:38;;;;;;;1.83;1.40;;;18.40;99.90;;;;;;4973381;28;20035;-81
2021/09/20 03:44:04;;;;;;;3.10;1.50;;;18.50;99.90;;;;;;4973177;28;20073;-84
2021/09/20 03:46:30;;;;;;;4.22;1.75;;;18.50;99.90;;;;;;4973296;28;20033;-84
2021/09/20 03:48:56;;;;;;;1.88;1.20;;;18.60;99.90;;;;;;4973141;28;20035;-79
2021/09/20 03:51:25;;;;;;;2.88;1.40;;;18.60;99.90;;;;;;4973305;28;20027;-85
2021/09/20 03:53:54;;;;;;;2.38;1.67;;;18.60;99.90;;;;;;4973682;28;20118;-79
2021/09/20 03:56:20;;;;;;;7.22;1.70;;;18.60;99.90;;;;;;4978427;28;20034;-81
2021/09/20 03:58:46;;;;;;;2.78;1.30;;;18.60;99.90;;;;;;4978119;28;20178;-79
2021/09/20 04:01:12;;;;;;;6.22;1.65;;;18.60;99.90;;;;;;4978037;28;20034;-79
2021/09/20 04:03:38;;;;;;;5.53;1.58;;;18.60;99.90;;;;;;4978299;28;20045;-79
2021/09/20 04:06:04;;;;;;;3.33;1.40;;;18.60;99.90;;;;;;4978387;28;20034;-78
2021/09/20 04:08:30;;;;;;;4.93;1.27;;;18.60;99.90;;;;;;4977778;28;20078;-80
2021/09/20 04:10:56;;;;;;;1.15;1.05;;;18.60;99.90;;;;;;4977937;28;20054;-79
2021/09/20 04:13:23;;;;;;;2.80;1.17;;;18.60;99.90;;;;;;4978068;28;20141;-83
2021/09/20 04:15:53;;;;;;;3.53;1.33;;;18.60;99.90;;;;;;4977785;28;20026;-84
2021/09/20 04:18:21;;;;;;;2.40;1.17;;;18.60;99.90;;;;;;4977892;28;20031;-85
2021/09/20 04:20:48;;;;;;;2.40;1.35;;;18.60;99.90;;;;;;4977828;28;20452;-79
2021/09/20 04:23:15;;;;;;;3.85;1.35;;;18.60;99.90;;;;;;4977903;28;20070;-81
2021/09/20 04:25:41;;;;;;;1.67;1.10;;;18.60;99.90;;;;;;4977819;28;20094;-83
2021/09/20 04:28:07;;;;;;;2.35;1.25;;;18.50;99.90;;;;;;4977668;28;20042;-83
2021/09/20 04:30:33;;;;;;;3.38;1.40;;;18.50;99.90;;;;;;4977914;28;20035;-82
2021/09/20 04:33:08;;;;;;;2.80;1.23;;;18.40;99.90;;;;;;4977598;28;20090;-84
2021/09/20 04:35:39;;;;;;;11.63;1.40;;;18.40;99.90;;;;;;4977727;28;20039;-80
2021/09/20 04:38:05;;;;;;;2.10;1.20;;;18.30;99.90;;;;;;4977676;28;20047;-79
2021/09/20 04:40:32;;;;;;;4.55;1.55;;;18.30;99.90;;;;;;4977352;28;20035;-83
2021/09/20 04:42:58;;;;;;;2.95;1.13;;;18.20;99.90;;;;;;4977619;28;20038;-83
2021/09/20 04:45:24;;;;;;;5.85;1.15;;;18.20;99.90;;;;;;4977588;28;20035;-84
2021/09/20 04:47:50;;;;;;;1.73;1.00;;;18.10;99.90;;;;;;4977446;28;20031;-84
2021/09/20 04:50:18;;;;;;;1.05;0.95;;;18.00;99.90;;;;;;4977076;28;20054;-78
2021/09/20 04:52:45;;;;;;;1.92;1.15;;;17.90;99.90;;;;;;4977108;28;20046;-83
2021/09/20 04:55:16;;;;;;;4.55;0.98;;;17.80;99.90;;;;;;4977498;28;20039;-84
2021/09/20 04:57:41;;;;;;;3.70;1.02;;;17.80;99.90;;;;;;4977521;28;20023;-80
2021/09/20 05:00:11;;;;;;;2.13;0.80;;;17.70;99.90;;;;;;4977097;28;20031;-84
2021/09/20 05:02:41;;;;;;;5.07;0.95;;;17.80;99.90;;;;;;4977027;28;20030;-78
2021/09/20 05:05:10;;;;;;;3.03;1.10;;;17.70;99.90;;;;;;4976366;28;20089;-79
2021/09/20 05:07:39;;;;;;;8.65;1.10;;;17.70;99.90;;;;;;4976886;28;20101;-78
2021/09/20 05:10:05;;;;;;;2.13;0.80;;;17.70;99.90;;;;;;4976918;28;20489;-79
2021/09/20 05:12:31;;;;;;;2.42;0.95;;;17.70;99.90;;;;;;4977014;28;20062;-86
2021/09/20 05:15:00;;;;;;;0.98;0.70;;;17.60;99.90;;;;;;4976822;28;20070;-85
2021/09/20 05:17:26;;;;;;;3.15;0.85;;;17.70;99.90;;;;;;4976709;28;20101;-79
2021/09/20 05:43:54;;;;;;;3.92;0.60;;;18.80;99.90;;;;;;4879401;29;20090;-87
2021/09/20 06:34:13;;;;;;;6.28;0.50;;;23.40;99.90;;;;;;4897176;29;20142;-80
2021/09/20 06:43:47;;;;;;;12.88;0.70;;;24.40;99.90;;;;;;4908729;28;20055;-78
2021/09/20 07:01:30;;;;;;;2.20;0.40;;;25.50;99.90;;;;;;4878236;29;20454;-91
2021/09/20 08:16:45;;;;;;;4.63;0.30;;;19.60;99.90;;;;;;4768036;30;20094;-78
2021/09/20 09:15:00;;;;;;;0.47;0.40;;;21.70;99.90;;;;;;4752682;29;20063;-87
2021/09/20 09:25:16;;;;;;;0.98;0.50;;;20.90;99.90;;;;;;4782326;30;20058;-87
2021/09/20 09:27:51;;;;;;;1.85;0.43;;;20.80;99.90;;;;;;4909227;28;20409;-86
2021/09/20 09:44:34;;;;;;;0.57;0.50;;;21.20;99.90;;;;;;4947990;28;20101;-88
2021/09/20 09:54:15;;;;;;;0.57;0.30;;;21.30;99.90;;;;;;4915707;28;20112;-84
2021/09/20 10:07:45;;;;;;;0.43;0.30;;;21.20;99.90;;;;;;4935654;29;20042;-88
2021/09/20 10:17:44;;;;;;;4.07;1.48;;;20.60;99.90;;;;;;4846243;29;20146;-86
2021/09/20 10:20:59;;;;;;;1.95;0.50;;;20.50;99.90;;;;;;4878171;29;20044;-85
2021/09/20 10:51:29;;;;;;;0.30;0.30;;;21.30;99.90;;;;;;4859963;29;20118;-81
2021/09/20 11:04:36;;;;;;;0.40;0.40;;;21.60;99.90;;;;;;4839995;29;20565;-85
2021/09/20 11:28:31;;;;;;;1.98;0.70;;;21.90;99.90;;;;;;4827834;29;20118;-84
2021/09/20 11:38:12;;;;;;;0.75;0.63;;;21.90;99.90;;;;;;4895554;29;20460;-86
2021/09/20 11:44:37;;;;;;;0.77;0.40;;;22.00;99.90;;;;;;4955588;29;20489;-86
2021/09/20 12:13:53;;;;;;;1.60;0.70;;;22.30;99.90;;;;;;4859083;29;20078;-83
2021/09/20 12:16:49;;;;;;;0.75;0.50;;;22.30;99.90;;;;;;4860741;29;20465;-81
2021/09/20 12:19:27;;;;;;;0.40;0.40;;;22.30;99.90;;;;;;4862268;29;20045;-79
2021/09/20 12:26:03;;;;;;;0.77;0.60;;;22.10;99.90;;;;;;4947603;29;20077;-78
2021/09/20 12:28:57;;;;;;;0.50;0.40;;;21.80;99.90;;;;;;4972488;28;20473;-81
2021/09/20 12:31:52;;;;;;;2.80;0.50;;;21.70;99.90;;;;;;4977016;28;20058;-81
2021/09/20 12:34:20;;;;;;;4.50;0.50;;;21.70;99.90;;;;;;4976174;28;20090;-80
2021/09/20 12:36:57;;;;;;;0.50;0.43;;;21.70;99.90;;;;;;4976282;28;20035;-84
2021/09/20 12:39:28;;;;;;;1.17;0.70;;;21.70;99.90;;;;;;4976396;28;20114;-77
2021/09/20 12:42:05;;;;;;;4.45;0.80;;;21.70;99.90;;;;;;4976151;28;20054;-83
2021/09/20 12:44:54;;;;;;;0.75;0.50;;;21.70;99.90;;;;;;4976085;28;20116;-78
2021/09/20 12:47:27;;;;;;;0.90;0.75;;;21.80;99.90;;;;;;4976275;28;20086;-83
2021/09/20 12:50:12;;;;;;;2.38;0.90;;;21.80;99.90;;;;;;4976879;28;20039;-81
2021/09/20 12:52:44;;;;;;;1.50;0.70;;;21.80;99.90;;;;;;4977158;28;20376;-86
2021/09/20 12:55:31;;;;;;;;;;;21.70;99.90;;;;;;4977583;28;20506;-85
2021/09/20 12:57:57;;;;;;;1.45;0.65;;;21.70;99.90;;;;;;4977188;28;19906;-87
2021/09/20 13:00:37;;;;;;;2.45;0.50;;;21.60;99.90;;;;;;4976740;28;20039;-85
2021/09/20 13:03:15;;;;;;;4.75;0.65;;;21.60;99.90;;;;;;4976720;28;20027;-86
2021/09/20 13:05:46;;;;;;;2.50;0.45;;;21.70;99.90;;;;;;4977210;28;20030;-86
2021/09/20 13:08:13;;;;;;;0.52;0.52;;;21.70;99.90;;;;;;4977150;28;20057;-85
2021/09/20 13:10:42;;;;;;;1.85;0.47;;;21.60;99.90;;;;;;4976608;28;20071;-84
2021/09/20 13:13:12;;;;;;;0.40;0.40;;;21.60;99.90;;;;;;4976457;28;20034;-84
2021/09/20 13:16:28;;;;;;;;;;;;;;;;;;;;;
2021/09/20 13:26:29;;;;;;;8.32;0.88;;;21.30;99.90;;;;;;4962516;28;20560;-84
2021/09/20 13:29:24;;;;;;;1.02;0.47;;;21.40;99.90;;;;;;4976211;28;20050;-86
2021/09/20 13:49:19;;;;;;;;;;;;;;;;;;;;;
2021/09/20 13:52:35;;;;;;;0.68;0.50;;;21.30;99.90;;;;;;4923302;29;20447;-83
2021/09/20 13:55:12;;;;;;;12.13;1.52;;;21.20;99.90;;;;;;4951097;29;20156;-83
2021/09/20 14:04:56;;;;;;;0.80;0.50;;;21.20;99.90;;;;;;4955142;29;20037;-79
2021/09/20 14:24:56;;;;;;;;;;;;;;;;;;;;;
2021/09/20 14:31:24;;;;;;;4.40;0.85;;;20.80;99.90;;;;;;4913629;29;20518;-82
2021/09/20 14:33:50;;;;;;;1.77;0.60;;;20.60;99.90;;;;;;4916597;29;20131;-79
2021/09/20 14:36:32;;;;;;;;;;;;;;;;;;;;;
2021/09/20 14:46:27;;;;;;;1.63;0.70;;;20.40;99.90;;;;;;4923982;28;20479;-80
2021/09/20 15:12:40;;;;;;;0.80;0.80;;;19.90;99.90;;;;;;4827839;29;20053;-80
2021/09/20 15:25:25;;;;;;;1.88;0.80;;;19.70;99.90;;;;;;4877765;29;20043;-83
2021/09/20 15:39:51;;;;;;;;;;;;;;;;;;;;;
2021/09/20 15:46:46;;;;;;;2.70;0.73;;;19.50;99.90;;;;;;4859031;29;20101;-78
2021/09/20 16:03:16;;;;;;;7.70;2.10;;;19.10;99.90;;;;;;4860095;29;20081;-84
2021/09/20 16:06:04;;;;;;;2.15;0.90;;;19.00;99.90;;;;;;4959754;28;20038;-80
2021/09/20 16:09:20;;;;;;;1.52;0.80;;;19.00;99.90;;;;;;4974279;28;20058;-78
2021/09/20 16:19:22;;;;;;;1.30;1.10;;;18.80;99.90;;;;;;4922129;28;20144;-82
2021/09/20 16:29:45;;;;;;;4.10;1.10;;;18.60;99.90;;;;;;4922542;28;20728;-78
2021/09/20 16:42:46;;;;;;;1.02;1.00;;;18.40;99.90;;;;;;4881790;29;20063;-85
2021/09/20 16:45:39;;;;;;;2.78;1.20;;;18.30;99.90;;;;;;4897838;29;20077;-83
2021/09/20 16:48:21;;;;;;;1.20;1.00;;;18.20;99.90;;;;;;4955645;28;20437;-82
2021/09/20 16:51:15;;;;;;;1.95;1.15;;;18.30;99.90;;;;;;4973680;28;20031;-84
2021/09/20 16:54:07;;;;;;;0.80;0.80;;;18.20;99.90;;;;;;4973017;28;20042;-79
2021/09/20 16:56:32;;;;;;;1.58;1.10;;;18.10;99.90;;;;;;4967654;28;20034;-79
2021/09/20 17:03:06;;;;;;;;;;;;;;;;;;;;;
2021/09/20 17:06:05;;;;;;;1.35;1.25;;;17.90;99.90;;;;;;4976927;28;20023;-83
2021/09/20 17:08:31;;;;;;;2.72;1.50;;;17.80;99.90;;;;;;4976971;28;20053;-84
2021/09/20 17:12:02;;;;;;;;;;;;;;;;;;;;;
2021/09/20 17:14:36;;;;;;;;;;;;;;;;;;;;;
2021/09/20 17:17:42;;;;;;;2.75;1.50;;;17.60;99.90;;;;;;4976713;28;20046;-84
2021/09/20 17:20:19;;;;;;;1.83;1.60;;;17.60;99.90;;;;;;4976778;28;20035;-83
2021/09/20 17:23:16;;;;;;;3.03;1.77;;;17.50;99.90;;;;;;4976629;28;20035;-84
2021/09/20 17:25:57;;;;;;;1.75;1.60;;;17.50;99.90;;;;;;4970943;28;20102;-82
2021/09/20 17:28:53;;;;;;;2.70;1.80;;;17.40;99.90;;;;;;4976788;28;20110;-83
2021/09/20 17:31:19;;;;;;;2.17;1.70;;;17.40;99.90;;;;;;4970549;28;20041;-83
2021/09/20 17:33:52;;;;;;;2.10;1.80;;;17.30;99.90;;;;;;4976140;28;20061;-82
2021/09/20 17:36:20;;;;;;;2.10;1.90;;;17.30;99.90;;;;;;4976572;28;20034;-85
2021/09/20 17:39:09;;;;;;;4.07;2.10;;;17.20;99.90;;;;;;4976287;28;20035;-83
2021/09/20 17:42:10;;;;;;;4.18;2.20;;;17.20;99.90;;;;;;4975923;28;20501;-82
2021/09/20 17:44:52;;;;;;;2.30;1.88;;;17.20;99.90;;;;;;4976321;28;20047;-76
2021/09/20 17:47:58;;;;;;;3.17;1.67;;;17.20;99.90;;;;;;4976232;28;20031;-82
2021/09/20 17:51:07;;;;;;;;;;;;;;;;;;;;;
2021/09/20 17:57:38;;;;;;;3.83;2.03;;;17.10;99.90;;;;;;4946076;28;20035;-81
2021/09/20 18:00:32;;;;;;;2.10;1.90;;;17.00;99.90;;;;;;4976354;28;20042;-79
2021/09/20 18:03:20;;;;;;;2.97;2.00;;;17.00;99.90;;;;;;4975952;28;20066;-82
2021/09/20 18:05:46;;;;;;;2.60;2.05;;;16.90;99.90;;;;;;4975651;28;20039;-80
2021/09/20 18:08:19;;;;;;;2.83;2.25;;;16.90;99.90;;;;;;4976143;28;20554;-82
2021/09/20 18:10:50;;;;;;;2.38;2.05;;;16.90;99.90;;;;;;4975607;28;20129;-83
2021/09/20 18:14:02;;;;;;;3.40;2.60;;;16.80;99.90;;;;;;4974761;28;20034;-86
2021/09/20 18:16:37;;;;;;;3.72;2.33;;;16.80;99.90;;;;;;4957855;28;20061;-84
2021/09/20 18:19:22;;;;;;;2.83;2.42;;;16.80;99.90;;;;;;4975464;28;20034;-83
2021/09/20 18:25:37;;;;;;;2.97;2.22;;;16.70;99.90;;;;;;4935387;29;20074;-85
2021/09/20 18:28:22;;;;;;;5.93;2.55;;;16.60;99.90;;;;;;4975565;28;20034;-81
2021/09/20 18:41:23;;;;;;;3.55;2.50;;;16.50;99.90;;;;;;4896708;29;20049;-82
2021/09/20 18:44:23;;;;;;;;;;;;;;;;;;;;;
2021/09/20 18:47:32;;;;;;;;;;;;;;;;;;;;;
2021/09/20 18:50:48;;;;;;;2.72;2.30;;;16.50;99.90;;;;;;4884904;29;20040;-85
2021/09/20 18:54:02;;;;;;;;;;;;;;;;;;;;;
2021/09/20 18:56:45;;;;;;;6.78;2.85;;;16.50;99.90;;;;;;4850544;29;20048;-85
2021/09/20 19:06:06;;;;;;;6.45;2.95;;;16.40;99.90;;;;;;4939180;28;20082;-88
2021/09/20 19:09:01;;;;;;;5.32;2.75;;;16.40;99.90;;;;;;4955759;28;20034;-87
2021/09/20 19:18:32;;;;;;;;;;;;;;;;;;;;;
2021/09/20 19:38:01;;;;;;;3.97;2.65;;;16.60;99.90;;;;;;4860644;29;20408;-89
2021/09/20 20:16:13;;;;;;;2.80;2.50;;;16.60;99.90;;;;;;4768837;29;20444;-88
2021/09/20 20:25:57;;;;;;;;;;;;;;;;;;;;;
2021/09/20 20:44:24;;;;;;;3.03;2.72;;;16.60;99.90;;;;;;4810063;29;20063;-79
2021/09/20 20:47:07;;;;;;;3.60;3.10;;;16.60;99.90;;;;;;4809008;29;20552;-91
2021/09/20 20:54:19;;;;;;;3.17;2.88;;;16.70;99.90;;;;;;4865384;29;20464;-84
2021/09/20 20:57:05;;;;;;;3.15;2.50;;;16.70;99.90;;;;;;4908219;29;20135;-78
2021/09/20 21:09:32;;;;;;;8.20;3.03;;;16.70;99.90;;;;;;4899179;28;20571;-78
2021/09/20 21:12:45;;;;;;;;;;;16.80;99.90;;;;;;4898341;29;20528;-79
2021/09/20 21:22:22;;;;;;;3.30;2.72;;;16.70;99.90;;;;;;4861905;29;20090;-86
2021/09/20 21:25:35;;;;;;;5.38;2.47;;;16.70;99.90;;;;;;4953613;29;20103;-89
2021/09/20 21:28:01;;;;;;;4.85;3.28;;;16.80;99.90;;;;;;4957322;29;20116;-92
2021/09/20 21:34:14;;;;;;;15.18;3.22;;;16.70;99.90;;;;;;4932565;29;20048;-75
2021/09/20 21:37:06;;;;;;;6.80;2.75;;;16.70;99.90;;;;;;4899123;29;20044;-87
2021/09/20 21:59:49;;;;;;;;;;;;;;;;;;;;;
2021/09/20 22:09:13;;;;;;;4.60;3.08;;;16.60;99.90;;;;;;4846963;29;20254;-86
2021/09/20 22:12:06;;;;;;;6.10;2.75;;;16.60;99.90;;;;;;4928732;28;20034;-83
2021/09/20 22:18:17;;;;;;;;;;;;;;;;;;;;;
2021/09/20 22:37:33;;;;;;;7.43;2.97;;;16.70;99.90;;;;;;4936352;28;20497;-88
2021/09/20 22:40:37;;;;;;;3.95;3.13;;;16.70;99.90;;;;;;4935469;29;20036;-81
2021/09/20 22:43:24;;;;;;;3.70;2.67;;;16.80;99.90;;;;;;4935097;29;20465;-89
2021/09/20 22:46:36;;;;;;;;;;;;;;;;;;;;;
2021/09/20 22:56:41;;;;;;;4.75;3.00;;;16.80;99.90;;;;;;4901987;29;20556;-76
2021/09/20 22:59:54;;;;;;;4.05;2.85;;;16.80;99.90;;;;;;4934657;29;20071;-78
2021/09/20 23:06:40;;;;;;;5.03;2.33;;;16.80;99.90;;;;;;4896781;29;20036;-90
2021/09/20 23:09:36;;;;;;;5.93;2.75;;;16.70;99.90;;;;;;4897925;29;20050;-91
2021/09/20 23:12:26;;;;;;;4.10;3.05;;;16.70;99.90;;;;;;4896754;29;20511;-84
2021/09/20 23:14:53;;;;;;;3.00;2.70;;;16.80;99.90;;;;;;4897290;29;20041;-80
2021/09/20 23:18:00;;;;;;;3.35;2.53;;;16.80;99.90;;;;;;4933624;29;20141;-81
2021/09/20 23:24:33;;;;;;;2.95;2.50;;;16.90;99.90;;;;;;4934816;29;20112;-78
2021/09/20 23:31:05;;;;;;;;;;;;;;;;;;;;;
2021/09/20 23:37:06;;;;;;;3.10;2.80;;;16.90;99.90;;;;;;4975082;28;20033;-83
2021/09/20 23:46:31;;;;;;;3.00;2.58;;;16.90;99.90;;;;;;4975111;28;20053;-81
2021/09/20 23:49:45;;;;;;;;;;;;;;;;;;;;;
